Terminal Aerodrome Forecast
Issued by NWS

Home | Current Version | Previous Version | Text Only | Print | Product List | Glossary On
Versions: 1 2 3 4 5 6 7 8 9 10 11 12 13 14 15 16 17 18 19 20 21 22 23 24
469
FTUS42 KGSP 161730
TAFGMU
TAF
KGMU 161730Z 1618/1718 06006KT P6SM OVC008
     FM170200 09004KT 4SM BR VCSH OVC003
     FM170800 15003KT 1 1/2SM BR OVC003
     FM171400 21006KT 3SM BR OVC008
     FM171600 22008KT P6SM OVC008=

USA.gov is the U.S. government's official web portal to all federal, state and local government web resources and services.